Time,TemperatureF,DewpointF,PressureIn,WindDirection,WindDirectionDegrees,WindSpeedMPH,WindSpeedGustMPH,Humidity,HourlyPrecipIn,Conditions,Clouds,dailyrainin,SoftwareType,DateUTC
2013-03-06 00:02:00,21.4,14.4,24.04,South,180,23.0,26.0,74,0.00,,,0.00,meteohub,2013-03-06 07:02:00,
2013-03-06 00:07:00,21.4,14.4,24.04,South,180,23.0,26.0,74,0.00,,,0.00,meteohub,2013-03-06 07:07:00,
2013-03-06 00:12:00,21.7,13.8,24.04,South,180,24.0,26.0,71,0.00,,,0.00,meteohub,2013-03-06 07:12:00,
2013-03-06 00:17:00,21.9,13.3,24.03,South,180,29.0,29.0,69,0.00,,,0.00,meteohub,2013-03-06 07:17:00,
2013-03-06 00:22:00,22.3,12.9,24.04,South,180,27.0,29.0,67,0.00,,,0.00,meteohub,2013-03-06 07:22:00,
2013-03-06 00:27:00,22.6,12.7,24.04,South,180,29.0,29.0,65,0.00,,,0.00,meteohub,2013-03-06 07:27:00,
2013-03-06 00:32:00,22.8,12.6,24.03,South,180,27.0,30.0,64,0.00,,,0.00,meteohub,2013-03-06 07:32:00,
2013-03-06 00:37:00,23.0,12.6,24.04,South,180,28.0,30.0,64,0.00,,,0.00,meteohub,2013-03-06 07:37:00,
2013-03-06 00:42:00,23.2,12.4,24.03,South,180,27.0,31.0,63,0.00,,,0.00,meteohub,2013-03-06 07:42:00,
2013-03-06 00:47:00,23.2,12.0,24.03,South,180,28.0,31.0,62,0.00,,,0.00,meteohub,2013-03-06 07:47:00,
2013-03-06 00:52:00,23.4,11.8,24.02,South,180,32.0,32.0,61,0.00,,,0.00,meteohub,2013-03-06 07:52:00,
2013-03-06 00:57:00,23.4,11.8,24.03,South,180,29.0,33.0,61,0.00,,,0.00,meteohub,2013-03-06 07:57:00,
2013-03-06 01:02:00,23.4,11.8,24.03,South,180,30.0,33.0,61,0.00,,,0.00,meteohub,2013-03-06 08:02:00,
2013-03-06 01:07:00,23.4,11.8,24.03,South,180,30.0,33.0,61,0.00,,,0.00,meteohub,2013-03-06 08:07:00,
2013-03-06 01:12:00,23.4,11.8,24.03,South,180,24.0,30.0,61,0.00,,,0.00,meteohub,2013-03-06 08:12:00,
2013-03-06 01:17:00,23.4,12.6,24.02,South,180,25.0,30.0,63,0.00,,,0.00,meteohub,2013-03-06 08:17:00,
2013-03-06 01:22:00,23.4,12.2,24.02,South,180,25.0,30.0,62,0.00,,,0.00,meteohub,2013-03-06 08:22:00,
2013-03-06 01:27:00,23.4,11.8,24.03,South,180,27.0,30.0,61,0.00,,,0.00,meteohub,2013-03-06 08:27:00,
2013-03-06 01:32:00,23.5,11.7,24.03,South,180,27.0,30.0,60,0.00,,,0.00,meteohub,2013-03-06 08:32:00,
2013-03-06 01:37:00,23.2,12.4,24.02,South,180,28.0,29.0,63,0.00,,,0.00,meteohub,2013-03-06 08:37:00,
2013-03-06 01:42:00,23.4,12.6,24.03,South,180,25.0,28.0,63,0.00,,,0.00,meteohub,2013-03-06 08:42:00,
2013-03-06 01:47:00,23.4,11.8,24.03,South,180,29.0,30.0,61,0.00,,,0.00,meteohub,2013-03-06 08:47:00,
2013-03-06 01:52:00,23.5,11.7,24.03,South,180,29.0,30.0,60,0.00,,,0.00,meteohub,2013-03-06 08:52:00,
2013-03-06 01:57:00,23.7,11.8,24.02,South,180,29.0,30.0,60,0.00,,,0.00,meteohub,2013-03-06 08:57:00,
2013-03-06 02:02:00,23.9,12.0,24.02,South,180,27.0,30.0,60,0.00,,,0.00,meteohub,2013-03-06 09:02:00,
2013-03-06 02:07:00,23.9,12.0,24.02,South,180,27.0,31.0,60,0.00,,,0.00,meteohub,2013-03-06 09:07:00,
2013-03-06 02:12:00,23.7,12.2,24.01,South,180,33.0,33.0,61,0.00,,,0.00,meteohub,2013-03-06 09:12:00,
2013-03-06 02:17:00,23.9,12.4,24.02,South,180,28.0,33.0,61,0.00,,,0.00,meteohub,2013-03-06 09:17:00,
2013-03-06 02:22:00,23.9,12.0,24.02,South,180,27.0,33.0,60,0.00,,,0.00,meteohub,2013-03-06 09:22:00,
2013-03-06 02:27:00,23.9,12.4,24.02,South,180,27.0,33.0,61,0.00,,,0.00,meteohub,2013-03-06 09:27:00,
2013-03-06 02:32:00,23.9,12.0,24.02,South,180,29.0,30.0,60,0.00,,,0.00,meteohub,2013-03-06 09:32:00,
2013-03-06 02:37:00,23.9,12.4,24.01,South,180,26.0,29.0,61,0.00,,,0.00,meteohub,2013-03-06 09:37:00,
2013-03-06 02:42:00,24.3,12.7,24.01,South,180,28.0,31.0,61,0.00,,,0.00,meteohub,2013-03-06 09:42:00,
2013-03-06 02:47:00,24.1,12.6,24.01,South,180,25.0,31.0,61,0.00,,,0.00,meteohub,2013-03-06 09:47:00,
2013-03-06 02:52:00,24.1,12.6,24.01,South,180,26.0,31.0,61,0.00,,,0.00,meteohub,2013-03-06 09:52:00,
2013-03-06 02:57:00,24.1,11.8,24.01,South,180,28.0,30.0,59,0.00,,,0.00,meteohub,2013-03-06 09:57:00,
2013-03-06 03:02:00,24.1,12.2,24.01,South,180,27.0,28.0,60,0.00,,,0.00,meteohub,2013-03-06 10:02:00,
2013-03-06 03:07:00,24.1,12.2,24.01,South,180,27.0,28.0,60,0.00,,,0.00,meteohub,2013-03-06 10:07:00,
2013-03-06 03:12:00,24.6,12.4,24.01,South,180,22.0,28.0,59,0.00,,,0.00,meteohub,2013-03-06 10:12:00,
2013-03-06 03:17:00,24.8,11.7,24.00,South,180,27.0,27.0,57,0.00,,,0.00,meteohub,2013-03-06 10:17:00,
2013-03-06 03:22:00,24.8,12.6,24.00,South,180,23.0,29.0,59,0.00,,,0.00,meteohub,2013-03-06 10:22:00,
2013-03-06 03:32:00,24.4,12.2,24.00,South,180,28.0,29.0,59,0.00,,,0.00,meteohub,2013-03-06 10:32:00,
2013-03-06 03:42:00,24.6,12.0,23.99,South,180,32.0,36.0,58,0.00,,,0.00,meteohub,2013-03-06 10:42:00,
2013-03-06 03:47:00,24.8,12.2,23.99,South,180,30.0,36.0,58,0.00,,,0.00,meteohub,2013-03-06 10:47:00,
2013-03-06 03:52:00,24.6,12.0,23.99,South,180,27.0,36.0,58,0.00,,,0.00,meteohub,2013-03-06 10:52:00,
2013-03-06 03:57:00,24.4,12.2,23.99,South,180,27.0,33.0,59,0.00,,,0.00,meteohub,2013-03-06 10:57:00,
2013-03-06 04:02:00,24.6,12.4,23.99,South,180,26.0,34.0,59,0.00,,,0.00,meteohub,2013-03-06 11:02:00,
2013-03-06 04:07:00,24.6,12.4,23.99,South,180,26.0,34.0,59,0.00,,,0.00,meteohub,2013-03-06 11:07:00,
2013-03-06 04:12:00,24.8,12.6,23.99,South,180,26.0,32.0,59,0.00,,,0.00,meteohub,2013-03-06 11:12:00,
2013-03-06 04:17:00,24.6,12.4,23.99,South,180,28.0,34.0,59,0.00,,,0.00,meteohub,2013-03-06 11:17:00,
2013-03-06 04:22:00,25.0,11.8,23.99,South,180,37.0,37.0,57,0.00,,,0.00,meteohub,2013-03-06 11:22:00,
2013-03-06 04:27:00,25.0,11.8,23.98,South,180,27.0,37.0,57,0.00,,,0.00,meteohub,2013-03-06 11:27:00,
2013-03-06 04:32:00,24.4,12.6,23.98,South,180,29.0,37.0,60,0.00,,,0.00,meteohub,2013-03-06 11:32:00,
2013-03-06 04:37:00,25.0,12.4,23.98,South,180,30.0,37.0,58,0.00,,,0.00,meteohub,2013-03-06 11:37:00,
2013-03-06 04:42:00,24.6,12.7,23.98,South,180,28.0,32.0,60,0.00,,,0.00,meteohub,2013-03-06 11:42:00,
2013-03-06 04:47:00,24.6,12.4,23.98,South,180,26.0,32.0,59,0.00,,,0.00,meteohub,2013-03-06 11:47:00,
2013-03-06 04:57:00,24.6,12.4,23.97,South,180,26.0,34.0,59,0.00,,,0.00,meteohub,2013-03-06 11:57:00,
2013-03-06 05:02:00,24.4,12.6,23.97,South,180,29.0,34.0,60,0.00,,,0.00,meteohub,2013-03-06 12:02:00,
2013-03-06 05:07:00,24.4,12.6,23.98,South,180,29.0,33.0,60,0.00,,,0.00,meteohub,2013-03-06 12:07:00,
2013-03-06 05:17:00,25.0,12.7,23.97,South,180,31.0,34.0,59,0.00,,,0.00,meteohub,2013-03-06 12:17:00,
2013-03-06 05:22:00,25.2,13.3,23.97,South,180,31.0,34.0,60,0.00,,,0.00,meteohub,2013-03-06 12:22:00,
2013-03-06 05:27:00,25.2,12.9,23.97,South,180,31.0,35.0,59,0.00,,,0.00,meteohub,2013-03-06 12:27:00,
2013-03-06 05:32:00,25.2,12.9,23.97,South,180,31.0,35.0,59,0.00,,,0.00,meteohub,2013-03-06 12:32:00,
2013-03-06 05:37:00,24.8,12.9,23.97,South,180,27.0,35.0,60,0.00,,,0.00,meteohub,2013-03-06 12:37:00,
2013-03-06 05:42:00,24.8,12.9,23.97,South,180,29.0,34.0,60,0.00,,,0.00,meteohub,2013-03-06 12:42:00,
2013-03-06 05:47:00,25.0,13.1,23.97,South,180,31.0,32.0,60,0.00,,,0.00,meteohub,2013-03-06 12:47:00,
2013-03-06 05:52:00,25.2,12.9,23.97,South,180,33.0,35.0,59,0.00,,,0.00,meteohub,2013-03-06 12:52:00,
2013-03-06 05:57:00,25.2,12.9,23.96,South,180,28.0,35.0,59,0.00,,,0.00,meteohub,2013-03-06 12:57:00,
2013-03-06 06:02:00,25.2,12.9,23.96,South,180,28.0,35.0,59,0.00,,,0.00,meteohub,2013-03-06 13:02:00,
2013-03-06 06:07:00,25.2,12.9,23.96,South,180,28.0,33.0,59,0.00,,,0.00,meteohub,2013-03-06 13:07:00,
2013-03-06 06:12:00,25.7,12.9,23.96,South,180,28.0,30.0,58,0.00,,,0.00,meteohub,2013-03-06 13:12:00,
2013-03-06 06:17:00,25.2,12.4,23.96,South,180,30.0,30.0,58,0.00,,,0.00,meteohub,2013-03-06 13:17:00,
2013-03-06 06:22:00,25.2,12.9,23.96,South,180,28.0,32.0,59,0.00,,,0.00,meteohub,2013-03-06 13:22:00,
2013-03-06 06:27:00,25.3,13.1,23.96,South,180,28.0,32.0,59,0.00,,,0.00,meteohub,2013-03-06 13:27:00,
2013-03-06 06:32:00,24.8,13.3,23.95,South,180,26.0,32.0,61,0.00,,,0.00,meteohub,2013-03-06 13:32:00,
2013-03-06 06:37:00,24.8,13.6,23.96,South,180,27.0,31.0,62,0.00,,,0.00,meteohub,2013-03-06 13:37:00,
2013-03-06 06:42:00,24.8,13.3,23.96,South,180,27.0,30.0,61,0.00,,,0.00,meteohub,2013-03-06 13:42:00,
2013-03-06 06:47:00,25.0,13.1,23.96,South,180,23.0,28.0,60,0.00,,,0.00,meteohub,2013-03-06 13:47:00,
2013-03-06 06:52:00,25.0,13.5,23.95,South,180,25.0,27.0,61,0.00,,,0.00,meteohub,2013-03-06 13:52:00,
2013-03-06 06:57:00,25.0,13.5,23.95,South,180,28.0,28.0,61,0.00,,,0.00,meteohub,2013-03-06 13:57:00,
2013-03-06 07:07:00,25.5,13.6,23.94,South,180,32.0,34.0,60,0.00,,,0.00,meteohub,2013-03-06 14:07:00,
2013-03-06 07:12:00,25.2,14.0,23.94,South,180,31.0,36.0,62,0.00,,,0.00,meteohub,2013-03-06 14:12:00,
2013-03-06 07:17:00,25.3,13.8,23.94,South,180,30.0,36.0,61,0.00,,,0.00,meteohub,2013-03-06 14:17:00,
2013-03-06 07:22:00,25.2,14.4,23.94,South,180,29.0,36.0,63,0.00,,,0.00,meteohub,2013-03-06 14:22:00,
2013-03-06 07:27:00,25.2,14.0,23.94,South,180,25.0,36.0,62,0.00,,,0.00,meteohub,2013-03-06 14:27:00,
2013-03-06 07:32:00,25.2,14.0,23.94,South,180,21.0,32.0,62,0.00,,,0.00,meteohub,2013-03-06 14:32:00,
2013-03-06 07:37:00,25.0,14.2,23.93,South,180,27.0,30.0,63,0.00,,,0.00,meteohub,2013-03-06 14:37:00,
2013-03-06 07:42:00,24.6,13.8,23.93,South,180,26.0,30.0,63,0.00,,,0.00,meteohub,2013-03-06 14:42:00,
2013-03-06 07:47:00,25.2,14.0,23.93,South,180,27.0,30.0,62,0.00,,,0.00,meteohub,2013-03-06 14:47:00,
2013-03-06 07:52:00,25.5,14.0,23.93,South,180,27.0,30.0,61,0.00,,,0.00,meteohub,2013-03-06 14:52:00,
2013-03-06 07:57:00,24.8,14.7,23.92,South,180,28.0,29.0,65,0.00,,,0.00,meteohub,2013-03-06 14:57:00,
2013-03-06 08:02:00,24.3,14.5,23.92,South,180,33.0,33.0,66,0.00,,,0.00,meteohub,2013-03-06 15:02:00,
2013-03-06 08:07:00,24.3,14.5,23.91,South,180,33.0,33.0,66,0.00,,,0.00,meteohub,2013-03-06 15:07:00,
2013-03-06 08:12:00,25.5,15.1,23.90,South,180,40.0,40.0,64,0.00,,,0.00,meteohub,2013-03-06 15:12:00,
2013-03-06 08:22:00,25.5,15.1,23.90,South,180,40.0,40.0,64,0.00,,,0.00,meteohub,2013-03-06 15:22:00,
2013-03-06 08:27:00,26.1,14.5,23.90,South,180,39.0,40.0,61,0.00,,,0.00,meteohub,2013-03-06 15:27:00,
2013-03-06 08:32:00,26.2,14.5,23.90,South,180,40.0,45.0,61,0.00,,,0.00,meteohub,2013-03-06 15:32:00,
2013-03-06 08:37:00,25.0,15.3,23.90,South,180,38.0,45.0,66,0.00,,,0.00,meteohub,2013-03-06 15:37:00,
2013-03-06 08:42:00,25.2,15.4,23.90,South,180,37.0,45.0,66,0.00,,,0.00,meteohub,2013-03-06 15:42:00,
2013-03-06 08:47:00,25.2,15.4,23.89,South,180,38.0,40.0,66,0.00,,,0.00,meteohub,2013-03-06 15:47:00,
2013-03-06 08:57:00,26.4,15.1,23.89,South,180,40.0,40.0,62,0.00,,,0.00,meteohub,2013-03-06 15:57:00,
2013-03-06 09:02:00,26.2,15.4,23.89,South,180,36.0,40.0,63,0.00,,,0.00,meteohub,2013-03-06 16:02:00,
2013-03-06 09:07:00,26.2,15.4,23.89,South,180,36.0,40.0,63,0.00,,,0.00,meteohub,2013-03-06 16:07:00,
2013-03-06 09:12:00,27.1,15.1,23.89,South,180,37.0,40.0,60,0.00,,,0.00,meteohub,2013-03-06 16:12:00,
2013-03-06 09:17:00,26.4,14.7,23.90,South,180,34.0,43.0,61,0.00,,,0.00,meteohub,2013-03-06 16:17:00,
2013-03-06 09:22:00,27.1,14.7,23.90,South,180,34.0,43.0,59,0.00,,,0.00,meteohub,2013-03-06 16:22:00,
2013-03-06 09:27:00,27.7,14.4,23.90,South,180,32.0,41.0,57,0.00,,,0.00,meteohub,2013-03-06 16:27:00,
2013-03-06 09:32:00,28.2,14.9,23.90,South,180,32.0,37.0,57,0.00,,,0.00,meteohub,2013-03-06 16:32:00,
2013-03-06 09:37:00,28.4,14.7,23.90,South,180,30.0,37.0,56,0.00,,,0.00,meteohub,2013-03-06 16:37:00,
2013-03-06 09:42:00,28.4,15.1,23.89,SSE,158,31.0,36.0,57,0.00,,,0.00,meteohub,2013-03-06 16:42:00,
2013-03-06 09:47:00,28.6,14.0,23.90,South,180,22.0,36.0,54,0.00,,,0.00,meteohub,2013-03-06 16:47:00,
2013-03-06 09:52:00,28.6,14.5,23.90,South,180,27.0,33.0,55,0.00,,,0.00,meteohub,2013-03-06 16:52:00,
2013-03-06 09:57:00,29.1,15.4,23.89,South,180,26.0,33.0,56,0.00,,,0.00,meteohub,2013-03-06 16:57:00,
2013-03-06 10:02:00,29.1,14.5,23.88,South,180,27.0,34.0,54,0.00,,,0.00,meteohub,2013-03-06 17:02:00,
2013-03-06 10:07:00,29.1,14.5,23.88,South,180,27.0,34.0,54,0.00,,,0.00,meteohub,2013-03-06 17:07:00,
2013-03-06 10:12:00,28.8,15.1,23.87,South,180,31.0,34.0,56,0.00,,,0.00,meteohub,2013-03-06 17:12:00,
2013-03-06 10:17:00,28.9,14.7,23.87,South,180,34.0,34.0,55,0.00,,,0.00,meteohub,2013-03-06 17:17:00,
2013-03-06 10:22:00,29.5,14.5,23.87,South,180,34.0,34.0,53,0.00,,,0.00,meteohub,2013-03-06 17:22:00,
2013-03-06 10:27:00,29.7,14.5,23.87,South,180,30.0,35.0,53,0.00,,,0.00,meteohub,2013-03-06 17:27:00,
2013-03-06 10:32:00,29.5,15.8,23.87,South,180,29.0,35.0,56,0.00,,,0.00,meteohub,2013-03-06 17:32:00,
2013-03-06 10:37:00,29.5,15.3,23.88,SSE,158,33.0,35.0,55,0.00,,,0.00,meteohub,2013-03-06 17:37:00,
2013-03-06 10:42:00,29.7,15.1,23.88,SE,135,26.0,33.0,54,0.00,,,0.00,meteohub,2013-03-06 17:42:00,
2013-03-06 10:47:00,29.8,15.3,23.88,SE,135,25.0,33.0,54,0.00,,,0.00,meteohub,2013-03-06 17:47:00,
2013-03-06 10:52:00,30.0,16.2,23.88,South,180,27.0,33.0,56,0.00,,,0.00,meteohub,2013-03-06 17:52:00,
2013-03-06 10:57:00,29.8,17.6,23.87,South,180,28.0,30.0,60,0.00,,,0.00,meteohub,2013-03-06 17:57:00,
2013-03-06 11:02:00,30.2,15.1,23.87,South,180,40.0,40.0,53,0.00,,,0.00,meteohub,2013-03-06 18:02:00,
2013-03-06 11:07:00,30.2,15.1,23.86,South,180,40.0,40.0,53,0.00,,,0.00,meteohub,2013-03-06 18:07:00,
2013-03-06 11:12:00,29.7,16.3,23.86,South,180,32.0,40.0,57,0.00,,,0.00,meteohub,2013-03-06 18:12:00,
2013-03-06 11:17:00,29.7,16.7,23.87,South,180,34.0,40.0,58,0.00,,,0.00,meteohub,2013-03-06 18:17:00,
2013-03-06 11:22:00,30.0,15.8,23.88,South,180,34.0,40.0,55,0.00,,,0.00,meteohub,2013-03-06 18:22:00,
2013-03-06 11:27:00,29.8,16.9,23.87,South,180,30.0,37.0,58,0.00,,,0.00,meteohub,2013-03-06 18:27:00,
2013-03-06 11:32:00,30.0,16.7,23.87,South,180,29.0,36.0,57,0.00,,,0.00,meteohub,2013-03-06 18:32:00,
2013-03-06 11:37:00,30.7,15.6,23.87,South,180,26.0,35.0,53,0.00,,,0.00,meteohub,2013-03-06 18:37:00,
2013-03-06 11:42:00,30.9,16.7,23.88,South,180,23.0,30.0,55,0.00,,,0.00,meteohub,2013-03-06 18:42:00,
2013-03-06 11:47:00,31.1,16.0,23.87,South,180,22.0,29.0,53,0.00,,,0.00,meteohub,2013-03-06 18:47:00,
2013-03-06 11:52:00,30.6,17.6,23.88,South,180,23.0,27.0,58,0.00,,,0.00,meteohub,2013-03-06 18:52:00,
2013-03-06 11:57:00,30.4,17.4,23.87,South,180,23.0,26.0,58,0.00,,,0.00,meteohub,2013-03-06 18:57:00,
2013-03-06 12:02:00,30.7,17.2,23.87,South,180,26.0,26.0,57,0.00,,,0.00,meteohub,2013-03-06 19:02:00,
2013-03-06 12:07:00,30.7,17.2,23.87,South,180,26.0,26.0,57,0.00,,,0.00,meteohub,2013-03-06 19:07:00,
2013-03-06 12:12:00,30.6,17.6,23.88,South,180,21.0,26.0,58,0.00,,,0.00,meteohub,2013-03-06 19:12:00,
2013-03-06 12:17:00,30.4,17.4,23.88,South,180,23.0,26.0,58,0.00,,,0.00,meteohub,2013-03-06 19:17:00,
2013-03-06 12:22:00,30.4,18.9,23.87,South,180,19.0,26.0,62,0.00,,,0.00,meteohub,2013-03-06 19:22:00,
2013-03-06 12:27:00,30.4,19.2,23.87,South,180,20.0,23.0,63,0.00,,,0.00,meteohub,2013-03-06 19:27:00,
2013-03-06 12:37:00,30.9,19.0,23.86,South,180,22.0,22.0,61,0.00,,,0.00,meteohub,2013-03-06 19:37:00,
2013-03-06 12:42:00,30.7,19.6,23.86,South,180,27.0,27.0,63,0.00,,,0.00,meteohub,2013-03-06 19:42:00,
2013-03-06 12:47:00,30.9,21.6,23.86,South,180,32.0,32.0,68,0.00,,,0.00,meteohub,2013-03-06 19:47:00,
2013-03-06 12:52:00,30.9,23.9,23.85,South,180,34.0,35.0,75,0.00,,,0.00,meteohub,2013-03-06 19:52:00,
2013-03-06 12:57:00,30.7,24.1,23.86,South,180,34.0,35.0,76,0.00,,,0.00,meteohub,2013-03-06 19:57:00,
2013-03-06 13:02:00,30.7,25.3,23.86,South,180,30.0,35.0,80,0.00,,,0.00,meteohub,2013-03-06 20:02:00,
2013-03-06 13:12:00,28.4,26.1,23.85,SE,135,30.0,34.0,91,0.00,,,0.00,meteohub,2013-03-06 20:12:00,
2013-03-06 13:17:00,27.5,26.6,23.84,SSE,158,32.0,35.0,96,0.00,,,0.00,meteohub,2013-03-06 20:17:00,
2013-03-06 13:27:00,28.0,27.0,23.82,South,180,34.0,37.0,96,0.00,,,0.00,meteohub,2013-03-06 20:27:00,
2013-03-06 13:32:00,28.0,27.0,23.83,South,180,33.0,37.0,96,0.00,,,0.00,meteohub,2013-03-06 20:32:00,
2013-03-06 13:42:00,28.0,27.3,23.83,SE,135,27.0,35.0,97,0.00,,,0.00,meteohub,2013-03-06 20:42:00,
2013-03-06 13:47:00,27.9,27.7,23.83,SE,135,29.0,34.0,99,0.00,,,0.00,meteohub,2013-03-06 20:47:00,
2013-03-06 13:57:00,28.6,28.4,23.83,South,180,28.0,32.0,99,0.00,,,0.00,meteohub,2013-03-06 20:57:00,
2013-03-06 14:02:00,28.9,28.2,23.83,South,180,30.0,32.0,97,0.00,,,0.00,meteohub,2013-03-06 21:02:00,
2013-03-06 14:07:00,28.9,28.2,23.81,South,180,30.0,32.0,97,0.00,,,0.00,meteohub,2013-03-06 21:07:00,
2013-03-06 14:12:00,29.5,28.4,23.82,South,180,32.0,34.0,96,0.00,,,0.00,meteohub,2013-03-06 21:12:00,
2013-03-06 14:17:00,29.5,28.4,23.82,South,180,30.0,34.0,96,0.00,,,0.00,meteohub,2013-03-06 21:17:00,
2013-03-06 14:22:00,29.7,28.4,23.82,South,180,30.0,35.0,95,0.00,,,0.00,meteohub,2013-03-06 21:22:00,
2013-03-06 14:27:00,29.8,28.4,23.82,South,180,30.0,35.0,94,0.00,,,0.00,meteohub,2013-03-06 21:27:00,
2013-03-06 14:32:00,29.8,28.4,23.83,South,180,25.0,34.0,94,0.00,,,0.00,meteohub,2013-03-06 21:32:00,
2013-03-06 14:37:00,30.2,28.4,23.83,South,180,31.0,32.0,93,0.00,,,0.00,meteohub,2013-03-06 21:37:00,
2013-03-06 14:42:00,31.1,28.2,23.84,South,180,26.0,34.0,89,0.00,,,0.00,meteohub,2013-03-06 21:42:00,
2013-03-06 14:47:00,31.3,28.2,23.83,South,180,26.0,34.0,88,0.00,,,0.00,meteohub,2013-03-06 21:47:00,
2013-03-06 14:52:00,31.5,28.0,23.84,South,180,25.0,34.0,87,0.00,,,0.00,meteohub,2013-03-06 21:52:00,
2013-03-06 14:57:00,31.1,27.3,23.83,South,180,30.0,31.0,86,0.00,,,0.00,meteohub,2013-03-06 21:57:00,
2013-03-06 15:02:00,30.9,27.1,23.84,South,180,27.0,31.0,86,0.00,,,0.00,meteohub,2013-03-06 22:02:00,
2013-03-06 15:07:00,30.9,27.1,23.84,South,180,27.0,30.0,86,0.00,,,0.00,meteohub,2013-03-06 22:07:00,
2013-03-06 15:12:00,31.1,26.8,23.84,South,180,27.0,30.0,84,0.00,,,0.00,meteohub,2013-03-06 22:12:00,
2013-03-06 15:17:00,31.3,26.8,23.84,South,180,27.0,28.0,83,0.00,,,0.00,meteohub,2013-03-06 22:17:00,
2013-03-06 15:22:00,31.3,26.8,23.83,South,180,23.0,30.0,83,0.00,,,0.00,meteohub,2013-03-06 22:22:00,
2013-03-06 15:27:00,31.1,26.2,23.84,South,180,27.0,30.0,82,0.00,,,0.00,meteohub,2013-03-06 22:27:00,
2013-03-06 15:32:00,31.1,26.6,23.84,South,180,25.0,30.0,83,0.00,,,0.00,meteohub,2013-03-06 22:32:00,
2013-03-06 15:37:00,31.1,26.6,23.84,South,180,27.0,30.0,83,0.00,,,0.00,meteohub,2013-03-06 22:37:00,
2013-03-06 15:42:00,31.3,26.8,23.85,South,180,25.0,30.0,83,0.00,,,0.00,meteohub,2013-03-06 22:42:00,
2013-03-06 15:47:00,31.8,26.6,23.84,South,180,23.0,27.0,81,0.00,,,0.00,meteohub,2013-03-06 22:47:00,
2013-03-06 15:52:00,32.4,26.6,23.85,South,180,23.0,27.0,79,0.00,,,0.00,meteohub,2013-03-06 22:52:00,
2013-03-06 15:57:00,32.5,27.1,23.85,South,180,23.0,27.0,80,0.00,,,0.00,meteohub,2013-03-06 22:57:00,
2013-03-06 16:02:00,32.5,27.1,23.84,South,180,23.0,27.0,80,0.00,,,0.00,meteohub,2013-03-06 23:02:00,
2013-03-06 16:07:00,32.5,27.1,23.84,South,180,23.0,25.0,80,0.00,,,0.00,meteohub,2013-03-06 23:07:00,
2013-03-06 16:12:00,33.1,27.5,23.85,South,180,21.0,23.0,80,0.00,,,0.00,meteohub,2013-03-06 23:12:00,
2013-03-06 16:17:00,33.4,27.7,23.85,South,180,21.0,23.0,79,0.00,,,0.00,meteohub,2013-03-06 23:17:00,
2013-03-06 16:22:00,33.4,27.7,23.85,South,180,21.0,23.0,79,0.00,,,0.00,meteohub,2013-03-06 23:22:00,
2013-03-06 16:27:00,33.4,27.7,23.85,South,180,21.0,22.0,79,0.00,,,0.00,meteohub,2013-03-06 23:27:00,
2013-03-06 16:32:00,33.1,27.9,23.85,South,180,18.0,22.0,81,0.00,,,0.00,meteohub,2013-03-06 23:32:00,
2013-03-06 16:37:00,32.9,27.7,23.86,South,180,19.0,22.0,81,0.00,,,0.00,meteohub,2013-03-06 23:37:00,
2013-03-06 16:42:00,32.0,27.5,23.86,South,180,18.0,21.0,83,0.00,,,0.00,meteohub,2013-03-06 23:42:00,
2013-03-06 16:47:00,32.2,27.9,23.86,South,180,19.0,20.0,84,0.00,,,0.00,meteohub,2013-03-06 23:47:00,
2013-03-06 16:52:00,32.7,28.2,23.86,South,180,17.0,20.0,83,0.00,,,0.00,meteohub,2013-03-06 23:52:00,
2013-03-06 16:57:00,32.5,28.2,23.86,South,180,15.0,20.0,84,0.00,,,0.00,meteohub,2013-03-06 23:57:00,
2013-03-06 17:02:00,32.4,28.4,23.86,South,180,15.0,19.0,85,0.00,,,0.00,meteohub,2013-03-07 00:02:00,
2013-03-06 17:07:00,32.5,28.6,23.86,South,180,16.0,19.0,85,0.00,,,0.00,meteohub,2013-03-07 00:07:00,
2013-03-06 17:12:00,32.2,27.9,23.87,South,180,14.0,17.0,84,0.00,,,0.00,meteohub,2013-03-07 00:12:00,
2013-03-06 17:17:00,32.4,28.0,23.87,SSW,203,15.0,16.0,84,0.00,,,0.00,meteohub,2013-03-07 00:17:00,
2013-03-06 17:22:00,32.5,27.7,23.87,SW,225,11.0,16.0,82,0.00,,,0.00,meteohub,2013-03-07 00:22:00,
2013-03-06 17:27:00,32.2,26.4,23.87,West,270,17.0,17.0,79,0.00,,,0.00,meteohub,2013-03-07 00:27:00,
2013-03-06 17:32:00,32.0,25.9,23.87,West,270,23.0,23.0,78,0.00,,,0.00,meteohub,2013-03-07 00:32:00,
2013-03-06 17:37:00,32.0,25.9,23.88,West,270,23.0,23.0,78,0.00,,,0.00,meteohub,2013-03-07 00:37:00,
2013-03-06 17:47:00,29.8,26.2,23.88,West,270,23.0,24.0,86,0.00,,,0.00,meteohub,2013-03-07 00:47:00,
2013-03-06 17:52:00,28.8,26.8,23.88,West,270,21.0,27.0,92,0.00,,,0.00,meteohub,2013-03-07 00:52:00,
2013-03-06 17:57:00,28.6,27.5,23.87,West,270,22.0,27.0,96,0.00,,,0.00,meteohub,2013-03-07 00:57:00,
2013-03-06 18:02:00,28.8,28.0,23.87,SW,225,21.0,27.0,97,0.00,,,0.00,meteohub,2013-03-07 01:02:00,
2013-03-06 18:07:00,28.8,28.0,23.87,SW,225,21.0,22.0,97,0.00,,,0.00,meteohub,2013-03-07 01:07:00,
2013-03-06 18:12:00,30.2,30.0,23.86,North,0,11.0,22.0,99,0.00,,,0.00,meteohub,2013-03-07 01:12:00,
2013-03-06 18:17:00,30.0,29.8,23.86,SW,225,5.0,21.0,99,0.00,,,0.00,meteohub,2013-03-07 01:17:00,
2013-03-06 18:22:00,29.8,29.7,23.86,South,180,8.0,21.0,99,0.00,,,0.00,meteohub,2013-03-07 01:22:00,
2013-03-06 18:27:00,30.0,29.8,23.85,South,180,10.0,12.0,99,0.00,,,0.00,meteohub,2013-03-07 01:27:00,
2013-03-06 18:32:00,29.8,29.7,23.85,South,180,8.0,11.0,99,0.00,,,0.00,meteohub,2013-03-07 01:32:00,
2013-03-06 18:37:00,29.8,29.7,23.84,SE,135,12.0,12.0,99,0.00,,,0.00,meteohub,2013-03-07 01:37:00,
2013-03-06 18:42:00,29.8,29.7,23.86,South,180,15.0,15.0,99,0.00,,,0.00,meteohub,2013-03-07 01:42:00,
2013-03-06 18:47:00,29.8,29.7,23.85,South,180,13.0,17.0,99,0.00,,,0.00,meteohub,2013-03-07 01:47:00,
2013-03-06 18:52:00,29.8,29.7,23.86,South,180,12.0,17.0,99,0.00,,,0.00,meteohub,2013-03-07 01:52:00,
2013-03-06 18:57:00,30.2,30.0,23.85,South,180,13.0,17.0,99,0.00,,,0.00,meteohub,2013-03-07 01:57:00,
2013-03-06 19:02:00,30.2,30.0,23.85,South,180,15.0,15.0,99,0.00,,,0.00,meteohub,2013-03-07 02:02:00,
2013-03-06 19:07:00,30.2,30.0,23.85,South,180,15.0,15.0,99,0.00,,,0.00,meteohub,2013-03-07 02:07:00,
2013-03-06 19:12:00,29.7,29.5,23.86,South,180,17.0,17.0,99,0.00,,,0.00,meteohub,2013-03-07 02:12:00,
2013-03-06 19:17:00,29.8,29.7,23.85,South,180,21.0,21.0,99,0.00,,,0.00,meteohub,2013-03-07 02:17:00,
2013-03-06 19:22:00,29.8,29.7,23.86,South,180,19.0,21.0,99,0.00,,,0.00,meteohub,2013-03-07 02:22:00,
2013-03-06 19:27:00,29.8,29.7,23.86,South,180,21.0,21.0,99,0.00,,,0.00,meteohub,2013-03-07 02:27:00,
2013-03-06 19:32:00,30.2,30.0,23.86,South,180,23.0,23.0,99,0.00,,,0.00,meteohub,2013-03-07 02:32:00,
2013-03-06 19:37:00,30.2,29.7,23.86,South,180,23.0,23.0,98,0.00,,,0.00,meteohub,2013-03-07 02:37:00,
2013-03-06 19:42:00,30.6,29.8,23.87,South,180,21.0,23.0,97,0.00,,,0.00,meteohub,2013-03-07 02:42:00,
2013-03-06 19:47:00,30.9,29.8,23.87,South,180,21.0,23.0,96,0.00,,,0.00,meteohub,2013-03-07 02:47:00,
2013-03-06 19:52:00,31.1,30.0,23.87,South,180,19.0,23.0,96,0.00,,,0.00,meteohub,2013-03-07 02:52:00,
2013-03-06 19:57:00,31.1,29.7,23.87,South,180,17.0,23.0,94,0.00,,,0.00,meteohub,2013-03-07 02:57:00,
2013-03-06 20:02:00,30.7,28.9,23.87,South,180,23.0,23.0,93,0.00,,,0.00,meteohub,2013-03-07 03:02:00,
2013-03-06 20:07:00,30.7,28.9,23.88,South,180,23.0,23.0,93,0.00,,,0.00,meteohub,2013-03-07 03:07:00,
2013-03-06 20:17:00,32.2,28.4,23.87,SSW,203,14.0,23.0,86,0.00,,,0.00,meteohub,2013-03-07 03:17:00,
2013-03-06 20:22:00,32.2,28.4,23.88,SSW,203,21.0,23.0,86,0.00,,,0.00,meteohub,2013-03-07 03:22:00,
2013-03-06 20:27:00,31.8,28.9,23.88,SSW,203,17.0,21.0,89,0.00,,,0.00,meteohub,2013-03-07 03:27:00,
2013-03-06 20:32:00,32.0,28.6,23.87,SSW,203,20.0,21.0,87,0.00,,,0.00,meteohub,2013-03-07 03:32:00,
2013-03-06 20:37:00,32.0,28.2,23.87,SW,225,16.0,21.0,86,0.00,,,0.00,meteohub,2013-03-07 03:37:00,
2013-03-06 20:42:00,32.0,28.2,23.87,SW,225,15.0,21.0,86,0.00,,,0.00,meteohub,2013-03-07 03:42:00,
2013-03-06 20:47:00,32.0,28.2,23.87,SW,225,13.0,21.0,86,0.00,,,0.00,meteohub,2013-03-07 03:47:00,
2013-03-06 20:52:00,31.6,27.7,23.88,SW,225,16.0,17.0,85,0.00,,,0.00,meteohub,2013-03-07 03:52:00,
2013-03-06 20:57:00,31.5,27.1,23.88,SW,225,15.0,16.0,84,0.00,,,0.00,meteohub,2013-03-07 03:57:00,
2013-03-06 21:02:00,31.3,27.0,23.88,South,180,13.0,17.0,84,0.00,,,0.00,meteohub,2013-03-07 04:02:00,
2013-03-06 21:07:00,31.3,27.0,23.89,South,180,13.0,17.0,84,0.00,,,0.00,meteohub,2013-03-07 04:07:00,
2013-03-06 21:12:00,30.9,28.0,23.88,South,180,15.0,17.0,89,0.00,,,0.00,meteohub,2013-03-07 04:12:00,
2013-03-06 21:17:00,30.9,28.4,23.88,South,180,10.0,15.0,90,0.00,,,0.00,meteohub,2013-03-07 04:17:00,
2013-03-06 21:22:00,30.9,28.0,23.89,SW,225,11.0,15.0,89,0.00,,,0.00,meteohub,2013-03-07 04:22:00,
2013-03-06 21:27:00,31.1,28.0,23.89,SW,225,10.0,15.0,88,0.00,,,0.00,meteohub,2013-03-07 04:27:00,
2013-03-06 21:32:00,30.7,27.7,23.89,SW,225,8.0,11.0,88,0.00,,,0.00,meteohub,2013-03-07 04:32:00,
2013-03-06 21:37:00,30.6,27.5,23.89,SW,225,13.0,13.0,88,0.00,,,0.00,meteohub,2013-03-07 04:37:00,
2013-03-06 21:42:00,30.7,27.7,23.89,West,270,16.0,16.0,88,0.00,,,0.00,meteohub,2013-03-07 04:42:00,
2013-03-06 21:47:00,30.0,27.7,23.89,SW,225,15.0,20.0,91,0.00,,,0.00,meteohub,2013-03-07 04:47:00,
2013-03-06 21:52:00,29.5,27.7,23.88,SW,225,19.0,20.0,93,0.00,,,0.00,meteohub,2013-03-07 04:52:00,
2013-03-06 21:57:00,29.7,28.2,23.89,SW,225,17.0,20.0,94,0.00,,,0.00,meteohub,2013-03-07 04:57:00,
2013-03-06 22:02:00,29.7,28.2,23.89,SW,225,17.0,19.0,94,0.00,,,0.00,meteohub,2013-03-07 05:02:00,
2013-03-06 22:07:00,29.7,28.2,23.88,SW,225,17.0,19.0,94,0.00,,,0.00,meteohub,2013-03-07 05:07:00,
2013-03-06 22:12:00,30.4,27.9,23.88,South,180,14.0,19.0,90,0.00,,,0.00,meteohub,2013-03-07 05:12:00,
2013-03-06 22:17:00,30.6,27.7,23.88,South,180,14.0,17.0,89,0.00,,,0.00,meteohub,2013-03-07 05:17:00,
2013-03-06 22:22:00,30.6,27.7,23.87,South,180,9.0,17.0,89,0.00,,,0.00,meteohub,2013-03-07 05:22:00,
2013-03-06 22:27:00,30.6,28.0,23.87,South,180,8.0,15.0,90,0.00,,,0.00,meteohub,2013-03-07 05:27:00,
2013-03-06 22:32:00,30.7,27.9,23.88,South,180,11.0,15.0,89,0.00,,,0.00,meteohub,2013-03-07 05:32:00,
2013-03-06 22:37:00,30.6,27.7,23.88,South,180,14.0,14.0,89,0.00,,,0.00,meteohub,2013-03-07 05:37:00,
2013-03-06 22:42:00,30.0,27.5,23.88,South,180,11.0,14.0,90,0.00,,,0.00,meteohub,2013-03-07 05:42:00,
2013-03-06 22:47:00,29.5,27.7,23.88,South,180,15.0,15.0,93,0.00,,,0.00,meteohub,2013-03-07 05:47:00,
2013-03-06 22:52:00,29.3,28.0,23.89,South,180,13.0,15.0,95,0.00,,,0.00,meteohub,2013-03-07 05:52:00,
2013-03-06 22:57:00,30.0,28.6,23.89,South,180,19.0,19.0,94,0.00,,,0.00,meteohub,2013-03-07 05:57:00,
2013-03-06 23:02:00,30.2,28.4,23.89,South,180,16.0,19.0,93,0.00,,,0.00,meteohub,2013-03-07 06:02:00,
2013-03-06 23:07:00,30.2,28.4,23.90,South,180,16.0,19.0,93,0.00,,,0.00,meteohub,2013-03-07 06:07:00,
2013-03-06 23:12:00,30.6,28.6,23.89,South,180,12.0,19.0,92,0.00,,,0.00,meteohub,2013-03-07 06:12:00,
2013-03-06 23:22:00,30.7,28.8,23.89,South,180,17.0,17.0,92,0.00,,,0.00,meteohub,2013-03-07 06:22:00,
2013-03-06 23:27:00,30.6,28.6,23.89,South,180,14.0,17.0,92,0.00,,,0.00,meteohub,2013-03-07 06:27:00,
2013-03-06 23:32:00,30.7,28.8,23.89,South,180,10.0,17.0,92,0.00,,,0.00,meteohub,2013-03-07 06:32:00,
2013-03-06 23:37:00,30.7,28.8,23.90,South,180,8.0,17.0,92,0.00,,,0.00,meteohub,2013-03-07 06:37:00,
2013-03-06 23:42:00,30.6,28.6,23.90,South,180,9.0,16.0,92,0.00,,,0.00,meteohub,2013-03-07 06:42:00,
2013-03-06 23:47:00,30.4,28.6,23.90,South,180,7.0,13.0,93,0.00,,,0.00,meteohub,2013-03-07 06:47:00,
2013-03-06 23:57:00,30.4,28.9,23.90,South,180,6.0,10.0,94,0.00,,,0.00,meteohub,2013-03-07 06:57:00,